createdAt,value
2023-02-13T04:41:23.972Z,6.62
2023-02-13T04:44:27.322Z,5.87
2023-02-13T04:47:29.917Z,5.95
2023-02-13T04:53:35.562Z,10.37
2023-02-13T04:59:41.313Z,4.25
2023-02-13T05:02:45.196Z,3.97
2023-02-13T05:05:48.656Z,4.68
2023-02-13T05:08:52.309Z,5.80
2023-02-13T05:11:58.287Z,6.57
2023-02-13T05:15:01.252Z,7.18
2023-02-13T05:18:04.162Z,7.97
2023-02-13T05:21:25.781Z,6.35
2023-02-13T05:24:28.447Z,10.45
2023-02-13T05:27:31.411Z,6.43
2023-02-13T05:30:34.175Z,9.02
2023-02-13T05:33:37.435Z,7.22
2023-02-13T05:36:40.209Z,8.95
2023-02-13T05:39:43.574Z,9.50
2023-02-13T05:42:46.307Z,11.32
2023-02-13T05:45:49.222Z,8.05
2023-02-13T05:48:52.569Z,11.52
2023-02-13T05:51:55.642Z,10.23
2023-02-13T05:54:58.334Z,5.95
2023-02-13T06:01:04.753Z,6.55
2023-02-13T06:04:08.124Z,6.22
2023-02-13T06:07:11.027Z,7.97
2023-02-13T06:13:17.576Z,11.65
2023-02-13T06:16:20.678Z,7.30
2023-02-13T06:22:26.561Z,5.57
2023-02-13T06:25:30.750Z,8.43
2023-02-13T06:28:36.077Z,6.72
2023-02-13T06:34:41.834Z,7.68
2023-02-13T06:37:44.798Z,15.10
2023-02-13T06:40:48.515Z,6.35
2023-02-13T06:43:51.620Z,7.43
2023-02-13T06:46:54.997Z,7.87
2023-02-13T06:49:57.907Z,8.30
2023-02-13T06:53:01.773Z,8.20
2023-02-13T06:56:08.146Z,12.20
2023-02-13T06:59:11.130Z,7.20
2023-02-13T07:02:14.107Z,14.93
2023-02-13T07:05:17.208Z,11.82
2023-02-13T07:08:20.065Z,21.70
2023-02-13T07:11:25.247Z,22.92
2023-02-13T07:14:27.960Z,22.90
2023-02-13T07:17:31.323Z,11.88
2023-02-13T07:20:34.698Z,12.95
2023-02-13T07:23:37.795Z,11.52
2023-02-13T07:26:40.536Z,11.07
2023-02-13T07:29:43.828Z,20.23
2023-02-13T07:32:46.671Z,12.60
2023-02-13T07:35:51.299Z,12.85
2023-02-13T07:38:54.577Z,13.52
2023-02-13T07:41:57.805Z,11.15
2023-02-13T07:45:05.629Z,15.15
2023-02-13T07:48:08.751Z,13.30
2023-02-13T07:51:11.958Z,18.65
2023-02-13T07:54:15.138Z,10.15
2023-02-13T07:57:17.988Z,13.70
2023-02-13T08:00:21.760Z,11.10
2023-02-13T08:03:24.900Z,16.20
2023-02-13T08:06:30.714Z,8.20
2023-02-13T08:09:52.163Z,11.48
2023-02-13T08:12:55.014Z,12.02
2023-02-13T08:19:00.834Z,11.83
2023-02-13T08:22:04.492Z,14.25
2023-02-13T08:25:08.161Z,10.45
2023-02-13T08:28:11.213Z,10.57
2023-02-13T08:31:14.225Z,11.00
2023-02-13T08:34:17.367Z,13.38
2023-02-13T08:37:20.049Z,14.18
2023-02-13T08:40:25.398Z,10.40
2023-02-13T08:43:28.959Z,11.20
2023-02-13T08:49:35.176Z,7.97
2023-02-13T08:52:38.465Z,12.48
2023-02-13T08:55:41.128Z,10.43
2023-02-13T08:58:44.565Z,11.05
2023-02-13T09:04:50.206Z,9.23
2023-02-13T09:07:52.893Z,11.60
2023-02-13T09:10:59.066Z,8.60
2023-02-13T09:14:02.962Z,12.05
2023-02-13T09:17:21.021Z,8.55
2023-02-13T09:20:24.132Z,8.20
2023-02-13T09:23:27.564Z,9.68
2023-02-13T09:29:33.845Z,14.07
2023-02-13T09:32:39.983Z,10.13
2023-02-13T09:35:43.914Z,9.35
2023-02-13T09:38:54.894Z,18.45
2023-02-13T09:41:59.009Z,11.35
2023-02-13T09:45:06.650Z,10.18
2023-02-13T09:48:19.316Z,13.82
2023-02-13T09:51:25.853Z,11.03
2023-02-13T09:54:31.729Z,12.32
2023-02-13T09:57:40.307Z,12.05
2023-02-13T10:00:48.730Z,11.65
2023-02-13T10:04:28.248Z,12.80
2023-02-13T10:07:39.503Z,12.80
2023-02-13T10:10:51.990Z,17.23
2023-02-13T10:14:05.527Z,14.80
2023-02-13T10:17:16.356Z,13.88
2023-02-13T10:20:40.032Z,12.23
2023-02-13T10:23:51.279Z,13.45
2023-02-13T10:26:57.889Z,14.60
2023-02-13T10:30:12.533Z,11.45
2023-02-13T10:33:30.440Z,11.15
2023-02-13T10:36:40.813Z,11.82
2023-02-13T10:39:46.768Z,18.45
2023-02-13T10:43:21.384Z,9.20
2023-02-13T10:46:49.228Z,12.43
2023-02-13T10:50:15.921Z,14.30
2023-02-13T10:53:52.733Z,12.32
2023-02-13T10:57:24.212Z,9.95
2023-02-13T11:00:39.431Z,9.15
2023-02-13T11:03:47.980Z,11.00
2023-02-13T11:07:00.558Z,15.50
2023-02-13T11:10:13.325Z,13.05
2023-02-13T11:13:21.919Z,17.83
2023-02-13T11:16:24.892Z,11.77
2023-02-13T11:19:52.980Z,13.23
2023-02-13T11:22:57.533Z,12.65
2023-02-13T11:26:04.997Z,13.80
2023-02-13T11:29:21.489Z,13.70
2023-02-13T11:32:29.654Z,14.68
2023-02-13T11:35:35.772Z,12.57
2023-02-13T11:38:38.628Z,10.68
2023-02-13T11:44:53.474Z,9.55
2023-02-13T11:47:56.610Z,8.80
2023-02-13T11:50:59.597Z,19.45
2023-02-13T11:54:03.620Z,16.08
2023-02-13T11:57:21.499Z,15.55
2023-02-13T12:00:40.492Z,13.30
2023-02-13T12:03:43.691Z,18.10
2023-02-13T12:07:05.064Z,13.80
2023-02-13T12:10:22.454Z,13.40
2023-02-13T12:13:37.583Z,11.60
2023-02-13T12:16:40.576Z,17.60
2023-02-13T12:19:49.670Z,13.25
2023-02-13T12:23:33.306Z,12.95
2023-02-13T12:26:42.965Z,17.73
2023-02-13T12:30:24.872Z,17.33
2023-02-13T12:34:09.798Z,14.13
2023-02-13T12:37:28.022Z,8.98
2023-02-13T12:41:01.103Z,7.45
2023-02-13T12:44:55.290Z,12.88
2023-02-13T12:48:26.623Z,12.00
2023-02-13T12:51:51.070Z,10.82
2023-02-13T12:55:15.144Z,7.75
2023-02-13T12:58:27.034Z,6.35
2023-02-13T13:01:48.589Z,7.22
2023-02-13T13:05:05.166Z,4.15
2023-02-13T13:08:26.768Z,4.12
2023-02-13T13:11:57.599Z,4.37
2023-02-13T13:15:12.739Z,4.30
2023-02-13T13:18:40.547Z,2.85
2023-02-13T13:22:07.789Z,11.07
2023-02-13T13:25:40.584Z,3.78
2023-02-13T13:28:49.461Z,4.87
2023-02-13T13:32:01.452Z,4.28
2023-02-13T13:35:05.432Z,3.45
2023-02-13T13:38:14.531Z,4.43
2023-02-13T13:41:32.446Z,4.68
2023-02-13T13:44:35.707Z,6.75
2023-02-13T13:47:56.752Z,5.15
2023-02-13T13:51:00.517Z,6.53
2023-02-13T13:54:03.360Z,8.10
2023-02-13T14:00:10.529Z,6.55
2023-02-13T14:03:24.949Z,8.70
2023-02-13T14:06:47.767Z,6.00
2023-02-13T14:12:56.276Z,7.20
2023-02-13T14:15:59.661Z,7.15
2023-02-13T14:19:02.899Z,7.43
2023-02-13T14:22:24.583Z,7.10
2023-02-13T14:25:28.455Z,7.28
2023-02-13T14:28:31.469Z,8.52
2023-02-13T14:31:43.789Z,8.65
2023-02-13T14:35:13.275Z,6.55
2023-02-13T14:38:25.032Z,7.95
2023-02-13T14:41:56.880Z,8.18
2023-02-13T14:45:04.302Z,7.22
2023-02-13T14:48:13.590Z,9.40
2023-02-13T14:51:46.468Z,8.07
2023-02-13T14:58:05.444Z,8.02
2023-02-13T15:01:23.891Z,8.85
2023-02-13T15:04:59.811Z,6.50
2023-02-13T15:08:14.019Z,6.25
2023-02-13T15:11:37.625Z,8.40
2023-02-13T15:14:40.760Z,10.95
2023-02-13T15:17:43.577Z,7.78
2023-02-13T15:20:47.570Z,7.20
2023-02-13T15:23:53.760Z,7.85
2023-02-13T15:27:03.851Z,7.82
2023-02-13T15:30:25.173Z,9.82
2023-02-13T15:33:33.417Z,6.68
2023-02-13T15:36:41.529Z,7.65
2023-02-13T15:39:44.855Z,10.73
2023-02-13T15:42:48.482Z,7.35
2023-02-13T15:45:51.701Z,7.40
2023-02-13T15:48:57.866Z,7.43
2023-02-13T15:52:08.983Z,6.03
2023-02-13T15:55:28.473Z,8.75
2023-02-13T15:58:34.174Z,4.40
2023-02-13T16:01:39.646Z,6.07
2023-02-13T16:04:43.299Z,5.93
2023-02-13T16:10:50.179Z,5.45
2023-02-13T16:14:04.031Z,6.68
2023-02-13T16:17:16.154Z,6.40
2023-02-13T16:20:28.413Z,7.07
2023-02-13T16:23:31.846Z,4.90
2023-02-13T16:26:36.654Z,6.80
2023-02-13T16:29:48.488Z,7.60
2023-02-13T16:32:51.843Z,3.83
2023-02-13T16:36:01.168Z,4.05
2023-02-13T16:39:36.646Z,5.10
2023-02-13T16:42:39.916Z,3.62
2023-02-13T16:45:42.667Z,3.58
2023-02-13T16:48:59.385Z,6.25
2023-02-13T16:52:20.276Z,6.20
2023-02-13T16:55:23.235Z,2.30
2023-02-13T16:58:27.706Z,3.00
2023-02-13T17:01:30.986Z,5.10
2023-02-13T17:04:33.981Z,5.18
